Loco Hills, New Mexico
Current Conditions -  °F | °C
As of 5:53 PM on Wednesday 22 Oct 2014 (Local Time) from KCNM Reporting Station
Clear Clear  
Wind Chill: 71°   Ceiling: Unl
Heat Index: 71°   Visibility: 10mi
Dew Point: 60°   Wind: 5mph
Humidity: 68%   Direction: 130°SE
Pressure: 30.05"   Gusts: NA
Location:  32.82°N, 103.98°W
Report Text: KCNM 222353Z AUTO 13004KT 10SM CLR 22/16 A3005 RMK AO2 SLP135 T02170156 10228 20200 55002
Loading
Personal Weather Stations






























Interactive Weather Map
Tropical Storm Tracking
New forecast layout! Learn more

10-Day Weather Forecast

Advertisements
Track Severe Weather on mobile